x

North Hecate Strait (46183) Wave Buoy

12:00am - Tue 22nd Jul 2014 All times are PDT. -7 hours from GMT.

  • Sig Wave height 4.6ft
  • Peak Period 7s
  • Wind
    18mph, 22mph gusts
  • Sea Temp 56°f
  • Air Temp 55°f
  • Sea Pressure 1014mb
  • North Hecate Strait
  • North Hecate Strait

More Historic Weather Station data

Upgrade to MSW Pro to gain access to the past 30 days of data for over 8000 Wavebouys and Weather Stations around the globe.

Join Pro

Comparision Forecast

View Surf forecast
   
Tue 07/22 12:00am 4.5ft 7s 18 22 mph 1014mb 56f 55f
Mon 07/21 11:00pm 5ft 6s 20 25 mph 1013.6mb 56f 55f
10:00pm 5ft 6s 22 27 mph 1013.2mb 56f 55f
9:00pm 5ft 6s 22 27 mph 1012.8mb 56f 55f
8:00pm 5ft 6s 22 27 mph 1012.3mb 57f 55f
7:00pm 5ft 5s 27 34 mph 1011.9mb 57f 55f
6:00pm 5ft 6s 25 29 mph 1011.8mb 56f 55f
5:00pm 5ft 6s 27 36 mph 1011.5mb 56f 55f
4:00pm 5.5ft 6s 27 31 mph 1011.3mb 56f 55f
3:00pm 5.5ft 5s 29 36 mph 1011.3mb 56f 55f
2:00pm  -   -  27
mph
- - 55f
1:00pm 4.5ft 5s 27 31 mph 1010.6mb 56f 54f
12:00pm 4ft 5s 25 29 mph 1010.2mb 56f 55f
11:00am 3.5ft 4s 22 27 mph 1009.9mb 55f 56f
10:00am 3.5ft 4s 22 25 mph 1009.6mb 55f 55f
9:00am 3.5ft 4s 22 27 mph 1009.5mb 56f 55f
8:00am 3ft 4s 20 22 mph 1009.5mb 57f 55f
7:00am 2.5ft 4s 20 22 mph 1009.6mb 57f 55f
6:00am 1.6ft 3s 18 20 mph 1009.9mb 57f 55f
5:00am 1.3ft 3s 13 16 mph 1010.2mb 57f 55f
4:00am 1ft 3s 11 13 mph 1010.5mb 56f 55f
3:00am 1ft 14s 7 9 mph 1010.9mb 56f 56f
2:00am 1ft 3s 9
mph
1011.4mb 56f 57f
1:00am 1ft 3s 11 13 mph 1011.5mb 56f 56f
12:00am 1ft 3s 7 9 mph 1012.1mb 56f 57f
Sun 07/20 11:00pm 1ft 14s 13 16 mph 1012.4mb 56f 56f
10:00pm 1ft 10s 11 13 mph 1012.8mb 56f 56f
9:00pm 1.3ft 14s 9 11 mph 1013.1mb 56f 57f
8:00pm 1.3ft 10s 9
mph
1013.6mb 57f 56f
7:00pm 1ft 14s 9
mph
1014.1mb 57f 57f
6:00pm 1ft 13s 7 9 mph 1014.7mb 57f 57f
5:00pm 1ft 14s 9
mph
1014.9mb 57f 57f
4:00pm 1ft 12s 7 9 mph 1015.4mb 58f 57f
3:00pm 1ft 12s 4 7 mph 1015.5mb 57f 58f
2:00pm 1ft 12s  -  2 mph 1015.7mb 56f 57f
1:00pm 1ft 11s 4
mph
1015.5mb 56f 57f
12:00pm 1.3ft 12s 4 7 mph 1015.5mb 56f 56f
11:00am 1.3ft 11s 4 7 mph 1015.3mb 56f 55f
10:00am 1.3ft 11s 7 9 mph 1015.2mb 56f 56f
9:00am 1.6ft 3s 9 11 mph 1014.9mb 56f 55f
8:00am 1.3ft 14s 9 11 mph 1014.9mb 56f 55f
7:00am 1.3ft 11s 13 16 mph 1014.7mb 56f 55f
6:00am 1.6ft 12s 7 9 mph 1014.9mb 55f 55f
5:00am 1.6ft 12s 9 11 mph 1015.2mb 55f 54f
4:00am 1.6ft 4s 11 13 mph 1015.1mb 55f 56f
3:00am 2ft 4s 9 16 mph 1015.1mb 56f 56f
2:00am 2ft 4s 13 16 mph 1015mb 56f 57f
1:00am 2.5ft 4s 9 11 mph 1014.9mb 56f 57f
12:00am 2.5ft 5s 13
mph
1014.6mb 58f 58f
Sat 07/19 11:00pm 2.5ft 4s 9 11 mph 1014.5mb 57f 58f
10:00pm 2.5ft 4s 9 11 mph 1014.3mb 58f 58f
9:00pm 2.5ft 4s 4 7 mph 1013.9mb 58f 58f
8:00pm 2ft 4s 4 9 mph 1013.7mb 58f 59f
7:00pm 2ft 4s 2 4 mph 1013.5mb 58f 58f
6:00pm 1.6ft 4s 4
mph
1013.4mb 58f 58f
5:00pm 1.6ft 4s  -  2 mph 1013.4mb 58f 57f
4:00pm 2ft 4s  -  2 mph 1013.2mb 59f 57f
3:00pm 2ft 5s 2
mph
1012.6mb 58f 59f
2:00pm 1.6ft 6s 2
mph
1012mb 58f 59f
1:00pm 2ft 5s 7 9 mph 1011.4mb 56f 57f
12:00pm 2ft 5s 7 9 mph 1010.6mb 57f 58f
11:00am 2ft 5s 11 18 mph 1009.5mb 57f 57f
10:00am 2.5ft 5s 11 13 mph 1008.7mb 57f 57f
9:00am 2.5ft 5s 11 13 mph 1007.8mb 57f 57f
8:00am 2.5ft 4s 13 18 mph 1006.7mb 57f 57f
7:00am 2.5ft 6s 13 16 mph 1005.9mb 57f 57f
6:00am 2.5ft 5s 13 18 mph 1005.4mb 55f 57f
5:00am  -   -  13
mph
1005mb - 56f
4:00am 2ft 4s 16 20 mph 1005mb 55f 56f
3:00am 2ft 4s 11 13 mph 1005.1mb 55f 57f
2:00am 2ft 4s 11 18 mph 1005.5mb 57f 57f
1:00am 1.6ft 5s 13 16 mph 1005.5mb 57f 57f
12:00am 1.3ft 16s 13
mph
1005.7mb 57f 57f
Fri 07/18 11:00pm 1.6ft 4s 13 16 mph 1005.7mb 57f 57f
10:00pm 2ft 5s 11 13 mph 1005.9mb 57f 57f
9:00pm 2ft 5s 11 13 mph 1006.4mb 57f 57f
8:00pm 2ft 5s 13 16 mph 1006.8mb 57f 57f
7:00pm 2ft 5s 9
mph
1007.2mb 57f 58f
6:00pm 2.5ft 5s 9 11 mph 1008.4mb 57f 57f
5:00pm 2.5ft 4s 16 18 mph 1008.9mb 57f 57f
4:00pm 2.5ft 5s 13 18 mph 1009.5mb 57f 57f
3:00pm 2.5ft 4s 13 16 mph 1009.1mb 57f 58f
2:00pm 2.5ft 6s 13 16 mph 1009mb 57f 58f
1:00pm 2.5ft 5s 13 18 mph 1008.9mb 58f 58f
12:00pm 2ft 5s 11 13 mph 1008mb 58f 60f
11:00am 2.5ft 5s 11 13 mph 1007.6mb 58f 58f
10:00am 2.5ft 5s 9 11 mph 1007.3mb 57f 58f
9:00am 2.5ft 5s 11
mph
1007.1mb 57f 58f